Time;durP1;ratioP1;P1;durP2;ratioP2;P2;SDS_P1;SDS_P2;PMS_P1;PMS_P2;Temp;Humidity;BMP_temperature;BMP_pressure;BME280_temperature;BME280_humidity;BME280_pressure;Samples;Min_cycle;Max_cycle;Signal;HPM_P1;HPM_P2
2023/06/20 00:00:52;;;;;;;19.13;16.27;;;;;;;18.42;99.30;101022.88;5054481;28;20029;-45
2023/06/20 00:03:18;;;;;;;20.73;17.08;;;;;;;18.42;100.00;101022.00;5054114;28;20016;-47
2023/06/20 00:05:44;;;;;;;21.15;15.88;;;;;;;18.42;100.00;101022.00;5053307;28;20103;-45
2023/06/20 00:08:10;;;;;;;20.90;16.23;;;;;;;18.43;99.78;101022.00;5054411;28;20037;-44
2023/06/20 00:10:35;;;;;;;20.73;15.88;;;;;;;18.42;99.12;101022.88;5054045;28;20286;-48
2023/06/20 00:13:01;;;;;;;18.20;16.13;;;;;;;18.43;99.13;101016.78;5053581;28;20021;-47
2023/06/20 00:15:27;;;;;;;21.20;16.27;;;;;;;18.44;99.33;101020.28;5053886;28;20017;-48
2023/06/20 00:17:53;;;;;;;18.02;16.08;;;;;;;18.44;98.53;101009.84;5053930;28;20024;-48
2023/06/20 00:20:19;;;;;;;19.77;16.40;;;;;;;18.47;98.76;101015.03;5053072;28;20076;-44
2023/06/20 00:22:44;;;;;;;19.60;15.73;;;;;;;18.47;99.48;101009.81;5053891;28;20071;-44
2023/06/20 00:25:09;;;;;;;20.05;16.52;;;;;;;18.47;98.57;101012.44;5054170;28;20025;-49
2023/06/20 00:27:35;;;;;;;18.83;15.68;;;;;;;18.49;99.28;101008.09;5052882;28;20422;-47
2023/06/20 00:30:00;;;;;;;19.15;15.90;;;;;;;18.54;98.54;101010.69;5053785;28;20033;-47
2023/06/20 00:32:25;;;;;;;17.13;15.32;;;;;;;18.50;99.03;101007.22;5053599;28;20021;-48
2023/06/20 00:34:51;;;;;;;17.23;15.45;;;;;;;18.52;97.92;101007.22;5052883;28;20025;-48
2023/06/20 00:37:16;;;;;;;20.23;15.00;;;;;;;18.57;97.09;101015.91;5053573;28;20432;-48
2023/06/20 00:39:41;;;;;;;18.08;13.85;;;;;;;18.66;94.82;101013.28;5052773;28;20036;-48
2023/06/20 00:42:19;;;;;;;19.00;14.25;;;;;;;18.71;93.61;101003.72;5053680;28;20489;-48
2023/06/20 00:44:45;;;;;;;16.27;13.85;;;;;;;18.71;94.75;101008.94;5053261;28;20466;-47
2023/06/20 00:47:11;;;;;;;16.60;13.70;;;;;;;18.75;93.98;101004.59;5052721;28;20488;-48
2023/06/20 00:49:38;;;;;;;16.83;14.27;;;;;;;18.82;92.82;101010.66;5053034;28;20021;-49
2023/06/20 00:52:05;;;;;;;16.63;13.68;;;;;;;18.77;93.30;101015.88;5053673;28;20025;-48
2023/06/20 00:54:30;;;;;;;18.33;13.13;;;;;;;18.78;93.28;101003.72;5052429;28;20029;-48
2023/06/20 00:56:56;;;;;;;16.80;13.48;;;;;;;18.76;93.30;101006.31;5053350;28;20071;-47
2023/06/20 00:59:21;;;;;;;14.68;13.13;;;;;;;18.79;93.17;101001.09;5053424;28;20025;-46
2023/06/20 01:01:46;;;;;;;15.85;14.15;;;;;;;18.73;93.26;100999.38;5052252;28;20086;-48
2023/06/20 01:04:12;;;;;;;21.27;14.52;;;;;;;18.75;93.85;101000.22;5053283;28;20021;-46
2023/06/20 01:06:47;;;;;;;19.45;15.05;;;;;;;18.79;93.04;100995.00;5053081;28;20461;-47
2023/06/20 01:09:23;;;;;;;16.95;13.60;;;;;;;18.86;90.60;100994.09;5052615;28;20033;-46
2023/06/20 01:12:02;;;;;;;18.50;14.07;;;;;;;18.86;91.79;100988.88;5053028;28;20070;-48
2023/06/20 01:14:42;;;;;;;16.60;13.38;;;;;;;18.92;90.84;100991.50;5052742;28;20033;-44
2023/06/20 01:17:30;;;;;;;17.52;14.40;;;;;;;18.93;89.60;100988.03;5052267;28;20052;-47
2023/06/20 01:20:15;;;;;;;17.00;13.55;;;;;;;18.89;90.83;100986.28;5052489;28;20094;-48
2023/06/20 01:22:59;;;;;;;18.02;13.55;;;;;;;18.89;89.88;100991.50;5051956;28;20028;-47
2023/06/20 01:25:46;;;;;;;18.00;13.80;;;;;;;18.88;89.57;100984.53;5052764;28;20025;-48
2023/06/20 01:28:21;;;;;;;16.42;13.30;;;;;;;18.89;89.78;100984.56;5052712;28;20029;-46
2023/06/20 01:30:53;;;;;;;16.75;13.25;;;;;;;18.95;89.16;100981.06;5051812;28;20032;-46
2023/06/20 01:33:27;;;;;;;15.90;13.43;;;;;;;18.99;87.06;100987.13;5052726;28;20031;-47
2023/06/20 01:35:54;;;;;;;17.08;13.70;;;;;;;19.01;87.97;100983.66;5052221;28;20029;-47
2023/06/20 01:38:22;;;;;;;15.98;13.48;;;;;;;19.07;86.59;100974.94;5052649;28;20473;-46
2023/06/20 01:40:49;;;;;;;14.90;13.27;;;;;;;19.05;86.95;100972.31;5052786;28;20053;-47
2023/06/20 01:43:18;;;;;;;17.55;12.35;;;;;;;19.11;85.61;100978.38;5052101;28;20029;-48
2023/06/20 01:45:46;;;;;;;15.00;12.80;;;;;;;19.12;86.46;100982.75;5052181;28;20361;-48
2023/06/20 01:48:13;;;;;;;14.80;12.73;;;;;;;19.08;87.17;100967.09;5052816;28;20056;-48
2023/06/20 01:50:40;;;;;;;17.03;13.37;;;;;;;19.14;86.37;100975.78;5051724;28;20024;-48
2023/06/20 01:53:08;;;;;;;17.42;13.50;;;;;;;19.10;85.87;100966.22;5052800;28;20048;-48
2023/06/20 01:55:35;;;;;;;15.77;13.15;;;;;;;19.06;86.68;100963.59;5052261;28;20533;-48
2023/06/20 01:58:02;;;;;;;15.90;13.30;;;;;;;19.08;86.02;100964.47;5051832;28;20052;-47
2023/06/20 02:00:28;;;;;;;15.90;12.73;;;;;;;19.04;87.03;100960.16;5052185;28;20021;-47
2023/06/20 02:02:57;;;;;;;16.60;13.63;;;;;;;19.03;86.21;100966.25;5052669;28;20108;-47
2023/06/20 02:05:24;;;;;;;17.17;13.43;;;;;;;19.06;85.21;100957.53;5051768;28;20075;-43
2023/06/20 02:07:53;;;;;;;16.42;13.52;;;;;;;19.06;84.45;100958.38;5052483;28;20049;-46
2023/06/20 02:10:21;;;;;;;15.88;12.93;;;;;;;19.12;83.58;100954.91;5052467;28;20029;-49
2023/06/20 02:12:49;;;;;;;16.42;13.48;;;;;;;19.17;82.60;100954.84;5051234;28;20090;-48
2023/06/20 02:15:16;;;;;;;14.80;12.48;;;;;;;19.16;83.03;100958.34;5052657;28;20028;-49
2023/06/20 02:17:43;;;;;;;15.68;12.88;;;;;;;19.19;81.99;100947.91;5052318;28;20021;-47
2023/06/20 02:20:09;;;;;;;15.50;12.48;;;;;;;19.18;82.28;100946.16;5051569;28;20049;-48
2023/06/20 02:22:36;;;;;;;15.02;12.68;;;;;;;19.15;83.23;100947.03;5052275;28;20064;-49
2023/06/20 02:25:06;;;;;;;15.83;13.33;;;;;;;19.15;82.02;100949.66;5052111;28;20495;-44
2023/06/20 02:27:32;;;;;;;15.93;12.38;;;;;;;19.15;82.17;100949.66;5053677;28;20715;-48
2023/06/20 02:30:00;;;;;;;15.32;12.30;;;;;;;19.17;82.71;100949.63;5056292;28;20021;-46
2023/06/20 02:32:27;;;;;;;17.67;12.88;;;;;;;19.16;81.93;100954.00;5055068;28;20032;-46
2023/06/20 02:34:55;;;;;;;17.70;12.65;;;;;;;19.16;82.05;100950.50;5056595;28;20109;-47
2023/06/20 02:37:23;;;;;;;17.50;12.55;;;;;;;19.15;81.23;100956.63;5056015;28;20029;-46
2023/06/20 02:39:48;;;;;;;15.27;12.80;;;;;;;19.13;82.29;100951.38;5055308;28;20111;-45
2023/06/20 02:42:14;;;;;;;16.60;12.80;;;;;;;19.13;81.60;100947.91;5056041;28;20108;-45
2023/06/20 02:44:39;;;;;;;14.77;12.30;;;;;;;19.13;81.16;100954.00;5055877;28;20047;-45
2023/06/20 02:47:35;;;;;;;14.88;11.63;;;;;;;19.11;82.33;100944.44;5055247;28;20029;-43
2023/06/20 02:50:14;;;;;;;15.75;12.75;;;;;;;19.10;80.66;100947.94;5055776;28;20115;-44
2023/06/20 02:52:48;;;;;;;15.68;12.38;;;;;;;19.08;81.78;100943.59;5055525;28;20033;-48
2023/06/20 02:55:30;;;;;;;14.65;12.30;;;;;;;19.10;81.10;100947.94;5055311;28;20052;-45
2023/06/20 02:57:59;;;;;;;13.43;12.02;;;;;;;19.07;81.03;100951.44;5055830;28;20027;-43
2023/06/20 03:00:25;;;;;;;14.88;12.63;;;;;;;19.07;80.88;100947.06;5054672;28;20029;-46
2023/06/20 03:03:04;;;;;;;15.80;12.13;;;;;;;19.08;79.98;100946.19;5055691;28;20028;-45
2023/06/20 03:05:35;;;;;;;15.93;11.90;;;;;;;19.12;80.94;100946.16;5055508;28;20025;-46
2023/06/20 03:08:02;;;;;;;13.48;11.88;;;;;;;19.14;80.06;100945.28;5054793;28;20037;-45
2023/06/20 03:10:28;;;;;;;14.43;12.25;;;;;;;19.15;80.08;100946.19;5055096;28;20477;-44
2023/06/20 03:12:54;;;;;;;13.32;11.85;;;;;;;19.10;81.13;100942.72;5055259;28;20029;-46
2023/06/20 03:15:19;;;;;;;14.88;12.50;;;;;;;18.98;82.48;100939.28;5054499;28;20031;-45
2023/06/20 03:17:44;;;;;;;15.27;12.48;;;;;;;18.96;82.10;100933.16;5055125;28;20078;-48
2023/06/20 03:20:10;;;;;;;15.05;12.55;;;;;;;18.98;82.38;100928.81;5055109;28;20044;-46
2023/06/20 03:22:36;;;;;;;14.18;12.30;;;;;;;18.95;83.05;100928.81;5054367;28;20524;-48
2023/06/20 03:25:01;;;;;;;15.60;12.52;;;;;;;18.95;82.44;100927.97;5055098;28;20365;-46
2023/06/20 03:27:26;;;;;;;14.70;13.07;;;;;;;18.86;82.73;100927.09;5054878;28;20429;-44
2023/06/20 03:29:52;;;;;;;16.58;13.05;;;;;;;18.83;83.71;100928.84;5054163;28;20029;-44
2023/06/20 03:32:17;;;;;;;16.60;13.07;;;;;;;18.84;83.37;100931.44;5054862;28;20021;-43
2023/06/20 03:34:42;;;;;;;17.95;14.55;;;;;;;18.82;82.56;100934.94;5054735;28;20036;-43
2023/06/20 03:37:07;;;;;;;18.48;14.63;;;;;;;18.83;82.60;100934.06;5054292;28;20470;-46
2023/06/20 03:39:33;;;;;;;17.25;15.38;;;;;;;18.70;83.61;100938.47;5054128;28;20017;-43
2023/06/20 03:41:58;;;;;;;15.98;13.80;;;;;;;18.67;84.05;100939.34;5054941;28;20048;-44
2023/06/20 03:44:23;;;;;;;17.67;15.50;;;;;;;18.67;84.25;100949.78;5053625;28;20473;-46
2023/06/20 03:46:49;;;;;;;18.88;14.88;;;;;;;18.49;86.53;100945.47;5054785;28;20051;-45
2023/06/20 03:49:14;;;;;;;19.75;15.40;;;;;;;18.56;84.80;100947.16;5054747;28;20057;-43
2023/06/20 03:51:39;;;;;;;17.80;15.48;;;;;;;18.51;85.47;100953.28;5053715;28;20013;-43
2023/06/20 03:54:04;;;;;;;17.88;15.00;;;;;;;18.50;84.93;100964.59;5054601;28;20377;-44
2023/06/20 03:56:30;;;;;;;19.55;15.13;;;;;;;18.54;85.03;100963.69;5053601;28;20029;-44
2023/06/20 03:58:55;;;;;;;17.23;14.80;;;;;;;18.61;85.84;100969.81;5054396;28;20046;-47
2023/06/20 04:01:24;;;;;;;17.67;15.35;;;;;;;18.60;84.23;100968.91;5054205;28;20021;-45
2023/06/20 04:03:49;;;;;;;21.58;15.70;;;;;;;18.65;84.48;100968.91;5053564;28;20538;-43
2023/06/20 04:06:15;;;;;;;17.65;14.35;;;;;;;18.68;84.24;100975.00;5054430;28;20117;-48
2023/06/20 04:08:42;;;;;;;19.77;15.00;;;;;;;18.72;84.89;100978.47;5053767;28;20170;-43
2023/06/20 04:11:07;;;;;;;17.52;14.90;;;;;;;18.73;85.05;100975.00;5053543;28;20101;-49
2023/06/20 04:13:32;;;;;;;21.83;15.73;;;;;;;18.74;84.27;100976.72;5053916;28;20151;-44
2023/06/20 04:15:58;;;;;;;18.25;15.45;;;;;;;18.70;85.39;100980.22;5054029;28;20028;-43
2023/06/20 04:18:23;;;;;;;21.55;17.33;;;;;;;18.67;85.00;100980.22;5053177;28;20021;-45
2023/06/20 04:20:48;;;;;;;17.48;15.60;;;;;;;18.61;86.28;100970.66;5053641;28;20091;-45
2023/06/20 04:23:14;;;;;;;17.77;15.30;;;;;;;18.59;87.69;100964.56;5054202;28;20025;-47
2023/06/20 04:25:39;;;;;;;19.98;16.75;;;;;;;18.54;87.67;100963.69;5052897;28;20071;-47
2023/06/20 04:28:04;;;;;;;18.58;16.08;;;;;;;18.44;88.32;100962.88;5053700;28;20021;-46
2023/06/20 04:30:31;;;;;;;20.60;16.58;;;;;;;18.32;88.53;100948.09;5053438;28;20056;-47
2023/06/20 04:32:56;;;;;;;24.30;18.55;;;;;;;18.24;91.30;100949.81;5053190;28;20021;-44
2023/06/20 04:35:22;;;;;;;21.15;17.80;;;;;;;18.16;91.71;100942.00;5053956;28;20036;-44
2023/06/20 04:37:51;;;;;;;21.58;18.30;;;;;;;18.09;92.45;100946.34;5053750;28;20017;-46
2023/06/20 04:40:17;;;;;;;22.35;18.55;;;;;;;18.02;93.78;100947.22;5052921;28;20033;-44
2023/06/20 04:42:43;;;;;;;21.35;19.08;;;;;;;18.05;93.00;100947.22;5053347;28;20040;-46
2023/06/20 04:45:09;;;;;;;21.38;19.00;;;;;;;18.15;92.53;100950.69;5053527;28;20024;-48
2023/06/20 04:47:34;;;;;;;20.58;18.40;;;;;;;18.26;91.67;100940.25;5052309;28;20029;-48
2023/06/20 04:50:03;;;;;;;23.65;19.70;;;;;;;18.30;93.33;100944.59;5052830;28;20029;-43
2023/06/20 04:52:30;;;;;;;25.90;20.63;;;;;;;18.41;93.47;100942.84;5053036;28;20025;-47
2023/06/20 04:55:01;;;;;;;24.13;21.23;;;;;;;18.54;94.54;100940.22;5052870;28;20028;-45
2023/06/20 04:57:27;;;;;;;23.77;20.50;;;;;;;18.64;92.99;100939.31;5052950;28;20268;-44
2023/06/20 04:59:52;;;;;;;27.83;20.48;;;;;;;18.75;92.05;100948.00;5053241;28;20021;-47
2023/06/20 05:02:18;;;;;;;23.15;20.10;;;;;;;18.83;91.15;100940.16;5053682;28;20075;-43
2023/06/20 05:04:43;;;;;;;25.30;21.30;;;;;;;18.92;91.38;100942.75;5053130;28;20052;-46
2023/06/20 05:07:08;;;;;;;28.15;21.35;;;;;;;19.02;92.01;100941.00;5052534;28;20025;-45
2023/06/20 05:09:33;;;;;;;25.73;21.15;;;;;;;19.15;92.35;100940.94;5052874;28;20028;-43
2023/06/20 05:11:59;;;;;;;25.50;22.20;;;;;;;19.23;89.67;100939.16;5053231;28;20029;-44
2023/06/20 05:14:24;;;;;;;26.20;23.17;;;;;;;19.34;89.39;100937.38;5052166;28;20021;-49
2023/06/20 05:16:49;;;;;;;26.92;22.15;;;;;;;19.46;88.70;100923.34;5053159;28;20029;-46
2023/06/20 05:19:15;;;;;;;30.13;22.65;;;;;;;19.56;88.33;100922.41;5053213;28;20550;-43
2023/06/20 05:21:40;;;;;;;27.38;23.23;;;;;;;19.68;87.46;100920.59;5051818;28;20049;-44
2023/06/20 05:24:05;;;;;;;27.73;23.33;;;;;;;19.79;87.70;100916.13;5053341;28;20100;-43
2023/06/20 05:26:31;;;;;;;25.92;22.55;;;;;;;19.96;87.38;100910.84;5052671;28;20064;-46
2023/06/20 05:28:56;;;;;;;27.80;24.55;;;;;;;20.15;87.78;100916.75;5052147;28;20029;-43
2023/06/20 05:31:24;;;;;;;27.85;24.65;;;;;;;20.28;86.47;100909.66;5052982;28;20025;-44
2023/06/20 05:33:50;;;;;;;28.40;25.05;;;;;;;20.51;86.19;100914.66;5052891;28;20025;-44
2023/06/20 05:36:15;;;;;;;26.85;24.02;;;;;;;20.56;85.62;100901.53;5052057;28;20082;-45
2023/06/20 05:38:40;;;;;;;28.08;23.73;;;;;;;20.66;84.07;100897.06;5052475;28;20105;-48
2023/06/20 05:41:06;;;;;;;29.23;23.63;;;;;;;21.01;83.34;100901.91;5052657;28;20032;-44
2023/06/20 05:43:33;;;;;;;27.23;23.90;;;;;;;21.24;81.92;100895.50;5051592;28;20465;-45
2023/06/20 05:45:58;;;;;;;27.75;24.75;;;;;;;21.36;81.38;100892.69;5052853;28;20032;-43
2023/06/20 05:48:25;;;;;;;26.65;21.98;;;;;;;21.24;78.81;100886.75;5052377;28;20025;-46
2023/06/20 05:50:51;;;;;;;30.95;24.95;;;;;;;21.46;79.97;100896.03;5052065;28;20044;-43
2023/06/20 05:53:17;;;;;;;26.77;24.00;;;;;;;21.49;79.50;100895.13;5052715;28;20021;-43
2023/06/20 05:55:43;;;;;;;28.25;24.40;;;;;;;21.54;79.56;100898.56;5052145;28;20040;-44
2023/06/20 05:58:08;;;;;;;29.50;25.55;;;;;;;21.42;79.56;100898.72;5052020;28;20035;-47
2023/06/20 06:00:34;;;;;;;30.27;25.70;;;;;;;21.30;79.32;100900.63;5052356;28;20025;-44
2023/06/20 06:02:59;;;;;;;30.75;27.45;;;;;;;21.24;79.87;100907.72;5055445;28;20025;-44
2023/06/20 06:05:24;;;;;;;30.15;26.55;;;;;;;21.30;81.40;100911.09;5055486;28;20120;-44
2023/06/20 06:07:49;;;;;;;25.58;22.52;;;;;;;21.42;81.15;100915.34;5056612;28;20086;-43
2023/06/20 06:10:15;;;;;;;25.23;22.60;;;;;;;21.47;80.08;100912.63;5055685;28;20029;-45
2023/06/20 06:12:40;;;;;;;25.33;22.73;;;;;;;21.48;81.01;100906.50;5056035;28;20443;-47
2023/06/20 06:15:07;;;;;;;27.83;23.08;;;;;;;21.53;81.54;100920.41;5056444;28;20029;-47
2023/06/20 06:17:33;;;;;;;23.45;20.73;;;;;;;21.56;81.42;100917.75;5055456;28;20100;-43
2023/06/20 06:19:58;;;;;;;20.95;18.65;;;;;;;21.68;81.38;100921.97;5056173;28;20108;-45
2023/06/20 06:22:23;;;;;;;20.98;17.45;;;;;;;21.76;80.38;100921.88;5055920;28;20110;-45
2023/06/20 06:24:49;;;;;;;21.27;17.85;;;;;;;21.80;80.92;100920.91;5055532;28;20035;-47
2023/06/20 06:27:14;;;;;;;19.88;17.77;;;;;;;21.86;79.59;100916.44;5056232;28;20021;-48
2023/06/20 06:29:39;;;;;;;20.35;17.08;;;;;;;21.95;79.55;100909.28;5056021;28;20488;-42
2023/06/20 06:32:06;;;;;;;22.40;19.23;;;;;;;21.93;80.91;100911.94;5055434;28;20376;-45
2023/06/20 06:34:32;;;;;;;20.55;17.25;;;;;;;21.97;80.64;100911.00;5055897;28;20033;-45
2023/06/20 06:36:58;;;;;;;19.70;16.10;;;;;;;22.04;80.50;100909.16;5056024;28;20032;-48
2023/06/20 06:39:24;;;;;;;19.25;16.13;;;;;;;22.09;80.65;100923.06;5054983;28;20028;-43
2023/06/20 06:41:49;;;;;;;18.42;16.52;;;;;;;22.18;80.77;100925.53;5056070;28;20028;-46
2023/06/20 06:44:15;;;;;;;16.38;14.32;;;;;;;22.27;80.42;100928.88;5055784;28;20369;-48
2023/06/20 06:46:41;;;;;;;15.73;13.32;;;;;;;22.25;80.56;100928.91;5054904;28;20064;-44
2023/06/20 06:49:07;;;;;;;13.73;12.00;;;;;;;22.25;81.33;100917.56;5055696;28;20033;-48
2023/06/20 06:51:32;;;;;;;16.83;11.90;;;;;;;22.26;81.92;100930.66;5055413;28;20021;-47
2023/06/20 06:53:57;;;;;;;13.00;10.57;;;;;;;22.22;81.54;100912.34;5054884;28;20037;-43
2023/06/20 06:56:22;;;;;;;12.35;10.40;;;;;;;22.22;82.22;100923.72;5055321;28;20025;-42
2023/06/20 06:58:48;;;;;;;13.07;10.97;;;;;;;22.28;81.96;100915.72;5055698;28;20027;-44
2023/06/20 07:01:14;;;;;;;13.65;10.57;;;;;;;22.41;82.37;100913.75;5054949;28;20267;-42
2023/06/20 07:03:39;;;;;;;13.13;10.35;;;;;;;22.47;81.64;100910.16;5055340;28;20104;-42
2023/06/20 07:06:04;;;;;;;12.57;10.13;;;;;;;22.46;81.15;100916.31;5055579;28;20082;-47
2023/06/20 07:08:29;;;;;;;17.00;11.35;;;;;;;22.48;80.87;100910.13;5054393;28;20511;-42
2023/06/20 07:10:55;;;;;;;12.93;10.32;;;;;;;22.48;80.77;100914.53;5055336;28;20455;-42
2023/06/20 07:13:25;;;;;;;12.57;10.18;;;;;;;22.43;80.37;100919.84;5054404;28;20071;-44
2023/06/20 07:15:51;;;;;;;10.93;9.27;;;;;;;22.50;81.67;100915.34;5055551;28;20109;-45
2023/06/20 07:18:16;;;;;;;12.43;9.75;;;;;;;22.58;81.36;100921.34;5055756;28;20063;-43
2023/06/20 07:20:41;;;;;;;11.30;9.90;;;;;;;22.66;80.37;100916.78;5053926;28;20041;-42
2023/06/20 07:23:07;;;;;;;13.73;9.73;;;;;;;22.78;79.93;100914.81;5055045;28;20631;-44
2023/06/20 07:25:32;;;;;;;15.02;9.88;;;;;;;22.79;79.41;100909.53;5054629;28;20061;-46
2023/06/20 07:27:57;;;;;;;12.27;8.98;;;;;;;22.84;79.53;100897.16;5054341;28;20082;-47
2023/06/20 07:30:23;;;;;;;13.32;8.35;;;;;;;22.90;79.16;100898.78;5054757;28;20029;-45
2023/06/20 07:32:48;;;;;;;11.05;7.60;;;;;;;23.08;79.72;100899.31;5055079;28;20029;-45
2023/06/20 07:35:14;;;;;;;9.80;7.78;;;;;;;23.23;79.69;100900.75;5054246;28;20483;-47
2023/06/20 07:37:40;;;;;;;8.63;7.00;;;;;;;23.45;79.57;100893.25;5054574;28;20064;-48
2023/06/20 07:40:07;;;;;;;11.30;7.55;;;;;;;23.44;78.32;100895.00;5054758;28;20068;-44
2023/06/20 07:42:32;;;;;;;10.63;8.32;;;;;;;23.49;78.12;100890.50;5053818;28;20053;-44
2023/06/20 07:44:58;;;;;;;8.98;8.02;;;;;;;23.40;77.63;100889.88;5054704;28;20437;-47
2023/06/20 07:47:23;;;;;;;10.38;7.40;;;;;;;23.47;77.73;100886.19;5054427;28;20104;-45
2023/06/20 07:49:48;;;;;;;9.95;7.30;;;;;;;23.57;78.09;100871.91;5053878;28;20381;-46
2023/06/20 07:52:14;;;;;;;11.53;6.70;;;;;;;23.64;76.90;100868.25;5054814;28;20473;-46
2023/06/20 07:54:39;;;;;;;12.43;7.03;;;;;;;23.82;77.16;100879.19;5054156;28;20284;-46
2023/06/20 07:57:05;;;;;;;9.40;7.80;;;;;;;23.87;75.89;100885.19;5053973;28;20021;-48
2023/06/20 07:59:30;;;;;;;11.40;8.07;;;;;;;23.99;76.44;100895.47;5054383;28;20325;-47
2023/06/20 08:01:55;;;;;;;10.00;8.10;;;;;;;24.06;76.67;100896.16;5054502;28;20029;-48
2023/06/20 08:04:21;;;;;;;11.30;7.20;;;;;;;24.23;75.38;100900.97;5053713;28;20117;-48
2023/06/20 08:06:46;;;;;;;8.65;7.57;;;;;;;24.24;75.07;100905.34;5054084;28;20267;-46
2023/06/20 08:09:11;;;;;;;11.38;7.43;;;;;;;24.33;74.13;100899.84;5054093;28;20051;-48
2023/06/20 08:11:37;;;;;;;9.68;6.50;;;;;;;24.32;74.01;100897.25;5053232;28;20029;-48
2023/06/20 08:14:03;;;;;;;11.73;7.20;;;;;;;24.49;74.14;100902.03;5054233;28;20122;-46
2023/06/20 08:16:28;;;;;;;8.38;7.45;;;;;;;24.40;73.00;100899.66;5053737;28;20480;-44
2023/06/20 08:18:53;;;;;;;10.45;7.88;;;;;;;24.43;73.80;100895.19;5053264;28;20056;-48
2023/06/20 08:21:19;;;;;;;8.90;6.72;;;;;;;24.43;74.09;100889.06;5053828;28;20128;-48
2023/06/20 08:23:45;;;;;;;10.30;7.00;;;;;;;24.34;72.69;100892.81;5053415;28;20029;-45
2023/06/20 08:26:11;;;;;;;10.77;6.77;;;;;;;24.36;73.37;100890.97;5053837;28;20028;-45
2023/06/20 08:28:36;;;;;;;10.85;6.38;;;;;;;24.45;73.30;100889.88;5053750;28;20121;-43
2023/06/20 08:31:02;;;;;;;9.52;6.40;;;;;;;24.52;73.35;100888.81;5053233;28;20021;-49
2023/06/20 08:33:28;;;;;;;11.40;6.47;;;;;;;24.54;71.91;100886.13;5053505;28;20053;-49
2023/06/20 08:35:54;;;;;;;17.95;5.68;;;;;;;24.75;72.12;100890.81;5053655;28;20108;-44
2023/06/20 08:38:19;;;;;;;8.80;5.78;;;;;;;24.93;72.19;100897.31;5052953;28;20029;-45
2023/06/20 08:40:45;;;;;;;9.02;5.40;;;;;;;24.94;71.93;100891.13;5053586;28;20032;-45
2023/06/20 08:43:17;;;;;;;9.80;6.13;;;;;;;24.89;70.96;100890.41;5053716;28;20025;-49
2023/06/20 08:45:43;;;;;;;7.25;5.60;;;;;;;24.93;70.72;100883.25;5052637;28;20113;-49
2023/06/20 08:48:09;;;;;;;6.60;4.97;;;;;;;25.13;71.43;100885.31;5053554;28;20438;-47
2023/06/20 08:50:36;;;;;;;7.18;4.72;;;;;;;25.55;69.51;100887.53;5053187;28;20469;-43
2023/06/20 08:53:04;;;;;;;7.50;4.63;;;;;;;25.64;67.54;100891.63;5052612;28;20381;-45
2023/06/20 08:55:30;;;;;;;5.57;4.57;;;;;;;25.77;67.35;100886.81;5053242;28;20033;-46
2023/06/20 08:57:56;;;;;;;8.02;4.93;;;;;;;25.73;65.72;100887.84;5053279;28;20381;-45
2023/06/20 09:00:22;;;;;;;6.38;4.60;;;;;;;25.72;66.50;100888.75;5052615;28;20025;-43
2023/06/20 09:02:49;;;;;;;6.38;4.47;;;;;;;25.74;66.19;100886.94;5053362;28;20017;-48
2023/06/20 09:05:14;;;;;;;5.65;4.20;;;;;;;25.75;65.80;100888.66;5053157;28;20025;-47
2023/06/20 09:07:41;;;;;;;5.55;4.40;;;;;;;25.91;66.12;100883.72;5052026;28;20083;-49
2023/06/20 09:10:08;;;;;;;6.20;4.60;;;;;;;25.96;65.76;100879.16;5053444;28;20032;-45
2023/06/20 09:12:54;;;;;;;9.00;5.18;;;;;;;25.73;65.59;100883.44;5052970;28;20028;-46
2023/06/20 09:15:22;;;;;;;6.20;4.40;;;;;;;25.68;65.38;100881.84;5052455;28;20436;-47
2023/06/20 09:17:52;;;;;;;6.80;4.28;;;;;;;25.83;65.21;100886.63;5052660;28;20063;-45
2023/06/20 09:20:18;;;;;;;8.48;4.60;;;;;;;26.01;64.35;100885.13;5052253;28;20033;-48
2023/06/20 09:22:43;;;;;;;6.50;4.70;;;;;;;25.99;63.80;100894.91;5052600;28;20052;-48
2023/06/20 09:25:10;;;;;;;6.10;4.28;;;;;;;26.23;63.90;100882.63;5052952;28;20075;-49
2023/06/20 09:27:37;;;;;;;6.13;4.50;;;;;;;26.31;61.86;100886.78;5051858;28;20025;-50
2023/06/20 09:30:03;;;;;;;6.78;4.03;;;;;;;26.68;62.80;100888.09;5052686;28;20496;-49
2023/06/20 09:32:36;;;;;;;10.93;4.45;;;;;;;26.59;62.58;100898.06;5052393;28;20025;-49
2023/06/20 09:35:03;;;;;;;6.35;4.75;;;;;;;26.40;61.86;100897.03;5052364;28;20024;-50
2023/06/20 09:37:38;;;;;;;;;;;;;;;26.66;62.26;100903.16;5052452;28;20036;-49
2023/06/20 09:40:14;;;;;;;7.53;4.10;;;;;;;26.89;61.81;100899.66;5052793;28;19913;-47
2023/06/20 09:42:41;;;;;;;5.90;4.55;;;;;;;26.86;60.55;100900.66;5051662;28;20029;-48
2023/06/20 09:45:11;;;;;;;6.10;4.00;;;;;;;26.98;59.72;100904.59;5052725;28;20134;-48
2023/06/20 09:47:39;;;;;;;6.35;4.43;;;;;;;26.82;58.14;100899.03;5052464;28;20029;-49
2023/06/20 09:50:20;;;;;;;7.20;4.05;;;;;;;26.87;60.25;100899.75;5052130;28;20025;-48
2023/06/20 09:52:51;;;;;;;6.85;3.83;;;;;;;27.22;61.36;100897.50;5052351;28;20025;-49
2023/06/20 09:55:20;;;;;;;7.47;4.07;;;;;;;27.26;59.35;100900.91;5051832;28;20021;-47
2023/06/20 09:57:54;;;;;;;5.93;3.83;;;;;;;27.23;56.97;100893.94;5052360;28;20025;-48
2023/06/20 10:00:19;;;;;;;6.57;3.97;;;;;;;27.31;56.05;100888.34;5051924;28;20021;-45
2023/06/20 10:02:47;;;;;;;7.20;3.80;;;;;;;27.21;56.95;100893.13;5050914;28;20036;-46
2023/06/20 10:05:14;;;;;;;5.80;3.75;;;;;;;27.64;57.71;100887.06;5051929;28;20479;-47
2023/06/20 10:07:41;;;;;;;5.75;3.78;;;;;;;27.55;56.62;100889.19;5051957;28;20025;-47
2023/06/20 10:10:07;;;;;;;5.15;3.78;;;;;;;27.70;54.77;100887.66;5051687;28;20056;-46
2023/06/20 10:12:33;;;;;;;5.28;3.65;;;;;;;27.99;53.69;100887.38;5052239;28;20029;-47
2023/06/20 10:15:01;;;;;;;7.35;3.88;;;;;;;28.62;53.04;100881.09;5052793;28;20051;-43
2023/06/20 10:17:32;;;;;;;5.40;4.05;;;;;;;28.35;52.79;100884.06;5051443;28;20052;-44
2023/06/20 10:19:59;;;;;;;5.05;3.90;;;;;;;28.45;52.24;100874.78;5052203;28;20025;-46
2023/06/20 10:22:41;;;;;;;4.60;3.17;;;;;;;28.93;50.48;100869.09;5051909;28;20713;-49
2023/06/20 10:25:14;;;;;;;6.78;3.05;;;;;;;29.47;50.03;100875.34;5051560;28;20052;-50
2023/06/20 10:27:52;;;;;;;6.35;3.38;;;;;;;30.44;45.74;100872.19;5052163;28;20025;-47
2023/06/20 10:30:50;;;;;;;6.32;3.00;;;;;;;30.71;44.56;100869.03;5052320;28;20025;-46
2023/06/20 10:33:45;;;;;;;4.97;3.10;;;;;;;31.25;43.25;100867.88;5052666;28;20033;-45
2023/06/20 10:36:12;;;;;;;5.72;3.03;;;;;;;31.03;41.27;100866.38;5047502;28;20036;-45
2023/06/20 10:38:48;;;;;;;4.50;2.67;;;;;;;32.04;40.52;100850.78;5051268;28;20025;-47
2023/06/20 10:41:21;;;;;;;4.35;3.20;;;;;;;31.99;39.25;100855.53;5052081;28;20433;-49
2023/06/20 10:43:58;;;;;;;5.78;3.20;;;;;;;32.48;38.84;100849.03;5052265;28;20139;-49
2023/06/20 10:46:48;;;;;;;4.85;3.05;;;;;;;32.77;39.35;100849.00;5051168;28;20158;-49
2023/06/20 10:49:14;;;;;;;5.65;3.10;;;;;;;32.64;36.73;100832.88;5055009;28;20057;-47
2023/06/20 10:51:43;;;;;;;5.87;2.97;;;;;;;33.31;36.50;100834.84;5054863;28;20515;-51
2023/06/20 10:54:12;;;;;;;4.25;3.00;;;;;;;33.69;36.20;100835.88;5055715;28;20082;-49
2023/06/20 10:56:38;;;;;;;4.82;2.60;;;;;;;33.76;34.16;100826.47;5055227;28;20372;-46
2023/06/20 10:59:19;;;;;;;7.93;2.40;;;;;;;34.58;33.90;100828.84;5054981;28;20465;-49
2023/06/20 11:01:45;;;;;;;6.15;2.75;;;;;;;35.49;31.07;100821.28;5055322;28;20035;-46
2023/06/20 11:04:15;;;;;;;4.63;2.27;;;;;;;34.98;31.83;100830.44;5055341;28;20099;-49
2023/06/20 11:06:41;;;;;;;4.38;2.20;;;;;;;34.98;31.02;100822.38;5054704;28;20025;-50
2023/06/20 11:09:22;;;;;;;5.63;2.30;;;;;;;34.78;31.90;100817.53;5055419;28;20029;-49
2023/06/20 11:11:48;;;;;;;4.13;2.20;;;;;;;34.83;31.96;100821.69;5055491;28;20029;-49
2023/06/20 11:14:15;;;;;;;4.17;2.30;;;;;;;34.64;32.52;100817.66;5054798;28;20029;-50
2023/06/20 11:16:42;;;;;;;4.30;2.20;;;;;;;34.99;31.73;100818.75;5054901;28;20024;-48